Bezig met laden...

Meteo / TAF / Notam

België
  • EBAW - ANTWERPEN / DEURNE
    EBAW 270320Z AUTO VRB02KT 2700 BR OVC004/// 08/06 Q1019
    TAF EBAW 270215Z 2703/2712 05003KT 4500 BR SCT008 BKN012 TEMPO 2703/2710 2500 -DZ SCT004 BKN006 PROB30 TEMPO 2705/2709 1200 BCFG
  • EBBE - BEAUVECHAIN
    EBBE 270325Z AUTO 22004KT 2300 BR BKN036/// BKN130/// 05/05 Q1019 YLO
    TAF EBBE 261541Z 2619/2707 18005KT 9999 SCT045 TEMPO 2703/2707 VRB02KT 3000 BR FEW004 PROB30 BECMG 2305/2307 VRB00KT 0500 FG FEW002
  • EBBL - KLEINE-BROGEL
    EBBL 270325Z AUTO VRB02KT 7000 OVC037/// 04/04 Q1019 WHT
    TAF EBBL 261541Z 2619/2707 VRB03KT 7000 FEW050 BECMG 2621/2623 4000 BR BECMG 2701/2703 2000 BR SCT002 PROB40 BECMG 2702/2704 0800 FG SCT000 BKN001
  • EBBR - BRUSSELS / BRUSSELS-NATIONAL
    EBBR 270320Z 18001KT 4500 BR SCT031 BKN040 06/05 Q1019 BECMG 3000 BR
    TAF EBBR 262310Z 2700/2806 VRB02KT 4500 BR SCT030 TEMPO 2703/2710 0400 FG BKN001 TEMPO 2710/2713 2500 BR BKN005 PROB40 TEMPO 2713/2719 7000 NSW PROB30 TEMPO 2800/2806 1200 BCFG
  • EBCI - CHARLEROI / BRUSSELS SOUTH
    EBCI 270320Z 20003KT 1500 BR FEW032 03/03 Q1019 TEMPO 0800 FG
    TAF EBCI 262310Z 2700/2806 VRB02KT 4000 BR SCT025 TEMPO 2702/2711 0400 FG BKN001 TEMPO 2711/2713 2500 BKN005 PROB40 TEMPO 2713/2719 7000 NSW PROB40 TEMPO 2723/2806 1200 BCFG
  • EBCV - CHIÈVRES
    EBCV 270325Z AUTO VRB01KT //// /// 04/04 Q1019
    TAF EBCV 261541Z 2619/2707 18003KT 9999 FEW045 BECMG 2619/2621 4000 BR BECMG 2621/2623 2000 BR PROB40 TEMPO 2621/2707 0500 FG BKN001 BY EBWM
  • EBDT - DIEST / SCHAFFEN
    EBDT 270325Z AUTO VRB01KT 3000 BR BKN036/// BKN140/// 05/05 Q1019 YLO
  • EBFN - KOKSIJDE
    EBFN 270333Z AUTO 07005KT 3600 -RA BKN025/// OVC057/// 08/07 Q1019 YLO
    TAF EBFN 261550Z 2619/2707 VRB02KT 0100 FG BKN002 TEMPO 2619/2620 4000 BR BKN010 TEMPO 2619/2707 03008KT 1000 -DZ -RA BKN005 BKN010 PROB30 TEMPO 2700/2707 07005KT 2000 BR BKN010 BKN015
  • EBFS - FLORENNES
    EBFS 270325Z AUTO VRB02KT 2600 BR SCT095/// BKN110/// 02/01 Q1018 YLO
    TAF EBFS 261541Z 2619/2707 15004KT 3000 BR FEW030 SCT250 TEMPO 2619/2707 0500 FG OVC001
  • EBLB - ELSENBORN
    EBLB 270346Z AUTO VRB01KT 1400 BR FEW003/// M01/M01 Q1018 AMB
  • EBLG - LIÈGE / LIÈGE
    EBLG 270320Z 17004KT 140V210 9999 FEW032 05/03 Q1019 NOSIG
    TAF EBLG 262310Z 2700/2806 15003KT 4000 BR SCT025 TEMPO 2702/2710 0400 FG BKN001 BECMG 2710/2712 7000 NSW PROB30 TEMPO 2800/2806 1200 BCFG
  • EBOS - OOSTENDE-BRUGGE / OOSTENDE
    EBOS 270320Z 09005KT 9000 BKN025 07/06 Q1020 TEMPO 3500 BR BKN015
    TAF EBOS 262310Z 2700/2806 05004KT 7000 SCT012 BKN018 PROB40 TEMPO 2700/2704 2000 -DZ SCT004 BKN007 PROB30 TEMPO 2703/2710 1200 BCFG BKN001 PROB30 TEMPO 2710/2720 SCT005 BKN008 PROB30 TEMPO 2800/2806 1200 BCFG
Nederland
  • EHAK - A12-CPP HELIPAD OIL 2011
    EHAK 270325Z AUTO 22003KT 9999 BKN040/// OVC044/// 09/04 Q1020
  • EHAM - AMSTERDAM AIRPORT SCHIPHOL
    EHAM 270325Z 03002KT 9999 FEW007 BKN040 06/06 Q1020 TEMPO 7000 MIFG BCFG
    TAF EHAM 262321Z 2700/2806 05004KT 9999 BKN040 PROB40 TEMPO 2700/2707 6000 -RADZ BKN012 BECMG 2707/2710 4000 BR BKN006 PROB40 TEMPO 2708/2713 2000 DZ SCT002 BKN003 BECMG 2719/2722 8000 NSW SCT040 BECMG 2722/2801 4000 MIFG BR PROB30 2722/2806 0600 FG BKN00
  • EHBK - MAASTRICHT AACHEN AIRPORT
    EHBK 270325Z AUTO 16002KT 7000 NSC 04/03 Q1019
    TAF EHBK 262318Z 2700/2806 20004KT 9999 SCT035 PROB30 2700/2708 3500 BR MIFG PROB30 2720/2806 2500 BR MIFG
  • EHDL - DEELEN AIR BASE
    EHDL 270325Z AUTO 02006KT 7000 BR FEW004 BKN005 BKN007 07/07 Q1019 YLO
  • EHDV - D15-FA-1 SEA
    EHDV 270325Z AUTO 01003KT 290V060 9999 FEW049/// 09/05 Q1020
  • EHEH - EINDHOVEN AIRPORT
    EHEH 270343Z AUTO 07003KT 8000 BR SCT006 SCT032 OVC039 06/05 Q1019 YLO
    TAF EHEH 262318Z 2700/2806 08003KT 7000 BKN035 PROB40 2701/2704 3500 BR SCT004 BKN005 PROB30 TEMPO 2701/2708 2000 DZRA BR SCT002 OVC003 PROB30 2701/2708 0600 FG BKN001 BECMG 2708/2710 3000 BKN003 BECMG 2710/2712 5000 BKN010 BECMG 2712/2714 04005KT CAVOK P
  • EHFD - F-3 PLATFORM
    EHFD 270325Z AUTO /////KT 9999 // FEW023/// BKN047/// 09/04 Q1020 RE//
  • EHFS - VLISSINGEN
    EHFS 270325Z AUTO 03005KT 9999 -UP OVC026/// 08/06 Q1019
  • EHGG - GRONINGEN AIRPORT EELDE
    EHGG 270325Z AUTO 28001KT 3400 DZ FEW015CB BKN031 OVC035 05/05 Q1020
    TAF EHGG 262318Z 2700/2806 VRB03KT 7000 -DZRA BKN020 PROB40 TEMPO 2700/2709 0300 BCFG BECMG 2709/2712 4000 BR BKN006 PROB30 2710/2719 1400 -DZ BKN002 BECMG 2717/2720 6000 NSW SCT015 PROB40 TEMPO 2721/2806 0400 FG VV000 BECMG 2722/2801 2000 BR BKN002
  • EHGR - GILZE-RIJEN AIR BASE
    EHGR 270343Z AUTO 05004KT 360V160 7000 BR SCT008 OVC016 07/06 Q1019 GRN
    TAF EHGR 261707Z 2618/2706 VRB03KT 2000 BR BKN005 OVC009 TEMPO 2618/2706 1300 BKN003 OVC005 PROB40 2618/2702 0400 FG BKN001
  • EHJA - J6-A SEA, NETHERLANDS
    EHJA 270325Z AUTO VRB03KT 9999 FEW022/// SCT029/// 09/04 Q1020
  • EHJR - K13-A PLATFORM
    EHJR 270325Z AUTO 00000KT //// // ///////// 09/04 Q1020 RE// W///H6
  • EHKD - DEN HELDER AIRPORT
    EHKD 270338Z AUTO 18002KT 0500 FG FEW000 BKN021 OVC024 02/01 Q1020 RED
    TAF EHKD 270118Z 2702/2714 VRB02KT 3000 BR FEW020 TEMPO 2702/2709 0500 BCFG BECMG 2708/2711 10005KT 7000 NSW BECMG 2712/2714 SCT010 BKN015 TEMPO 2712/2714 3500 -DZ BR FEW003 SCT005 BKN007
  • EHKV - K14-FA-1C PLATFORM
    EHKV 270325Z AUTO 03003KT 340V060 9999 FEW030 BKN044 09/03 Q1020
  • EHLE - LELYSTAD AIRPORT
    EHLE 270325Z AUTO 07002KT 9999 -DZ SCT002 BKN004 FEW015CB OVC041 07/06 Q1020
    TAF EHLE 262322Z 2700/2806 05004KT 9999 BKN040 PROB30 TEMPO 2700/2707 6000 -RADZ BECMG 2707/2710 4000 BR BKN006 PROB40 TEMPO 2708/2713 2000 DZ SCT002 BKN003 BECMG 2719/2722 8000 NSW SCT040 BECMG 2722/2801 4000 MIFG BR PROB40 2722/2806 0700 FG BKN002
  • EHLW - LEEUWARDEN AIR BASE
    EHLW 270340Z AUTO 22002KT 0450 FG BKN000 BKN022 BKN044 03/02 Q1020 RED
    TAF EHLW 270118Z 2702/2714 VRB02KT 6000 BR MIFG NSC TEMPO 2702/2709 3000 BR MIFG PROB40 TEMPO 2702/2709 0500 BCFG BECMG 2708/2710 11005KT 5000 NSW BECMG 2710/2712 SCT010 BKN015 TEMPO 2710/2714 3500 -DZ BR FEW003 BKN005 OVC007 PROB30 TEMPO 2711/2714 2000 D
  • EHMA - AWG-1 PLATFORM
    EHMA 270325Z AUTO 23001KT 9999 BKN043 BKN048 09/05 Q1020
  • EHMG - L9-FF-1 PLATFORM
    EHMG 270325Z AUTO 15003KT 110V180 9999 -RA BKN038 BKN042 OVC047 10/02 Q1021
  • EHPG - P11-B SEA, NETHERLANDS
    EHPG 270325Z AUTO 11005KT 080V150 9999 FEW016 09/05 Q1020
  • EHQE - HOORN-A SEA, NETHERLANDS
    EHQE 270325Z AUTO VRB02KT 9999 FEW047 09/06 Q1020
  • EHRD - ROTTERDAM THE HAGUE AIRPORT
    EHRD 270325Z AUTO 36004KT 330V030 9999 FEW005 SCT033 06/06 Q1020 TEMPO 4000 MIFG
    TAF EHRD 262321Z 2700/2806 06004KT 9999 BKN016 TEMPO 2700/2703 4000 -DZRA BKN007 PROB30 TEMPO 2700/2712 2000 DZ SCT002 BKN003 BECMG 2703/2706 4000 BR -DZ BKN006 BECMG 2719/2722 8000 NSW SCT040 BECMG 2722/2801 4000 MIFG BR PROB40 2722/2806 0700 FG BKN002
  • EHSA - EURO PLATFORM
    EHSA 270325Z AUTO 05006KT 9999 ///////// 09/06 Q1020 W10/H4
  • EHSC - LICHTEILAND GOEREE
    EHSC 270325Z AUTO 05007KT 9999 ///////// 08/06 Q1019 W11/H4
  • EHVK - VOLKEL AIR BASE
    EHVK 270325Z AUTO 08004KT 7000 BR BKN009 OVC010 06/05 Q1019 GRN
    TAF EHVK 270119Z 2702/2714 08003KT 7000 BKN035 BECMG 2703/2706 4000 SCT010 BKN015 PROB40 TEMPO 2703/2711 3500 -DZ BR SCT004 BKN005 PROB30 TEMPO 2705/2711 2000 DZRA BR SCT002 OVC003 BECMG 2708/2711 FEW010 BKN040
  • EHVL - VLIELAND HELIPORT
    EHVL 270325Z AUTO 18005KT 9999 BKN049 02/01 Q1020 BLU
  • EHWO - WOENSDRECHT AIR BASE
    EHWO 270346Z AUTO 05006KT 010V090 4200 BR BKN003 OVC004 07/07 Q1019 YLO
Luxemburg
  • ELLX - LUXEMBOURG FINDEL AIRPORT
    ELLX 270320Z 06004KT 1000 R06/1100VP2000U SCT000 M00/M01 Q1019 NOSIG
    TAF AMD ELLX 262300Z 2700/2806 VRB02KT CAVOK BECMG 2700/2703 1500 BR SCT003 BKN006 TEMPO 2703/2709 0600 FG FZFG BKN001 BECMG 2709/2712 4500 BR BKN005 BECMG 2712/2714 9999 SCT030 TEMPO 2714/2720 CAVOK

Buienradar



Weerbericht - Voorspelling